sensor_id;sensor_type;location;lat;lon;timestamp;P1;durP1;ratioP1;P2;durP2;ratioP2
18776;SDS011;9517;51.174;4.160;2022-10-15T00:02:12;39.90;;;26.70;;
18776;SDS011;9517;51.174;4.160;2022-10-15T00:04:40;39.03;;;26.83;;
18776;SDS011;9517;51.174;4.160;2022-10-15T00:07:07;40.17;;;26.37;;
18776;SDS011;9517;51.174;4.160;2022-10-15T00:09:34;40.00;;;25.97;;
18776;SDS011;9517;51.174;4.160;2022-10-15T00:12:01;36.73;;;26.50;;
18776;SDS011;9517;51.174;4.160;2022-10-15T00:14:28;39.13;;;26.80;;
18776;SDS011;9517;51.174;4.160;2022-10-15T00:16:55;37.37;;;27.03;;
18776;SDS011;9517;51.174;4.160;2022-10-15T00:19:22;40.07;;;26.17;;
18776;SDS011;9517;51.174;4.160;2022-10-15T00:21:51;38.17;;;25.90;;
18776;SDS011;9517;51.174;4.160;2022-10-15T00:24:18;34.43;;;23.90;;
18776;SDS011;9517;51.174;4.160;2022-10-15T00:26:45;38.17;;;25.30;;
18776;SDS011;9517;51.174;4.160;2022-10-15T00:29:12;38.90;;;24.70;;
18776;SDS011;9517;51.174;4.160;2022-10-15T00:31:39;36.60;;;25.53;;
18776;SDS011;9517;51.174;4.160;2022-10-15T00:34:06;35.37;;;23.93;;
18776;SDS011;9517;51.174;4.160;2022-10-15T00:36:35;38.20;;;25.27;;
18776;SDS011;9517;51.174;4.160;2022-10-15T00:39:04;37.07;;;23.80;;
18776;SDS011;9517;51.174;4.160;2022-10-15T00:41:33;37.80;;;23.83;;
18776;SDS011;9517;51.174;4.160;2022-10-15T00:44:01;37.20;;;23.10;;
18776;SDS011;9517;51.174;4.160;2022-10-15T00:46:49;35.93;;;24.33;;
18776;SDS011;9517;51.174;4.160;2022-10-15T00:49:21;37.40;;;25.20;;
18776;SDS011;9517;51.174;4.160;2022-10-15T00:51:51;35.57;;;24.00;;
18776;SDS011;9517;51.174;4.160;2022-10-15T00:54:22;34.17;;;22.97;;
18776;SDS011;9517;51.174;4.160;2022-10-15T00:56:52;37.23;;;23.27;;
18776;SDS011;9517;51.174;4.160;2022-10-15T00:59:21;33.80;;;23.10;;
18776;SDS011;9517;51.174;4.160;2022-10-15T01:01:51;33.73;;;23.03;;
18776;SDS011;9517;51.174;4.160;2022-10-15T01:04:19;33.97;;;23.47;;
18776;SDS011;9517;51.174;4.160;2022-10-15T01:06:47;38.83;;;24.50;;
18776;SDS011;9517;51.174;4.160;2022-10-15T01:09:14;34.17;;;23.67;;
18776;SDS011;9517;51.174;4.160;2022-10-15T01:11:43;38.63;;;23.97;;
18776;SDS011;9517;51.174;4.160;2022-10-15T01:14:16;40.10;;;25.53;;
18776;SDS011;9517;51.174;4.160;2022-10-15T01:16:54;36.73;;;25.07;;
18776;SDS011;9517;51.174;4.160;2022-10-15T01:19:34;39.83;;;25.47;;
18776;SDS011;9517;51.174;4.160;2022-10-15T01:22:13;36.50;;;25.13;;
18776;SDS011;9517;51.174;4.160;2022-10-15T01:24:57;38.30;;;25.93;;
18776;SDS011;9517;51.174;4.160;2022-10-15T01:27:38;40.20;;;25.43;;
18776;SDS011;9517;51.174;4.160;2022-10-15T01:32:59;40.27;;;25.87;;
18776;SDS011;9517;51.174;4.160;2022-10-15T01:35:40;45.87;;;26.17;;
18776;SDS011;9517;51.174;4.160;2022-10-15T01:38:15;42.67;;;27.60;;
18776;SDS011;9517;51.174;4.160;2022-10-15T01:40:49;45.63;;;28.87;;
18776;SDS011;9517;51.174;4.160;2022-10-15T01:43:21;42.13;;;27.47;;
18776;SDS011;9517;51.174;4.160;2022-10-15T01:45:55;48.43;;;27.63;;
18776;SDS011;9517;51.174;4.160;2022-10-15T01:48:28;46.03;;;28.20;;
18776;SDS011;9517;51.174;4.160;2022-10-15T01:50:58;46.23;;;27.93;;
18776;SDS011;9517;51.174;4.160;2022-10-15T01:53:27;48.67;;;28.90;;
18776;SDS011;9517;51.174;4.160;2022-10-15T01:55:55;47.90;;;28.30;;
18776;SDS011;9517;51.174;4.160;2022-10-15T01:58:25;46.33;;;27.97;;
18776;SDS011;9517;51.174;4.160;2022-10-15T02:00:56;46.43;;;28.13;;
18776;SDS011;9517;51.174;4.160;2022-10-15T02:03:24;49.40;;;29.57;;
18776;SDS011;9517;51.174;4.160;2022-10-15T02:05:52;52.03;;;29.77;;
18776;SDS011;9517;51.174;4.160;2022-10-15T02:08:38;51.60;;;29.70;;
18776;SDS011;9517;51.174;4.160;2022-10-15T02:11:11;51.67;;;30.40;;
18776;SDS011;9517;51.174;4.160;2022-10-15T02:13:42;54.03;;;30.03;;
18776;SDS011;9517;51.174;4.160;2022-10-15T02:16:18;53.23;;;29.87;;
18776;SDS011;9517;51.174;4.160;2022-10-15T02:18:49;55.90;;;29.90;;
18776;SDS011;9517;51.174;4.160;2022-10-15T02:21:20;52.93;;;30.50;;
18776;SDS011;9517;51.174;4.160;2022-10-15T02:23:53;55.17;;;30.17;;
18776;SDS011;9517;51.174;4.160;2022-10-15T02:26:26;55.97;;;30.83;;
18776;SDS011;9517;51.174;4.160;2022-10-15T02:28:55;58.03;;;32.03;;
18776;SDS011;9517;51.174;4.160;2022-10-15T02:31:26;54.87;;;31.67;;
18776;SDS011;9517;51.174;4.160;2022-10-15T02:33:56;60.90;;;32.10;;
18776;SDS011;9517;51.174;4.160;2022-10-15T02:36:27;59.90;;;32.00;;
18776;SDS011;9517;51.174;4.160;2022-10-15T02:38:54;66.70;;;32.83;;
18776;SDS011;9517;51.174;4.160;2022-10-15T02:41:23;59.03;;;33.23;;
18776;SDS011;9517;51.174;4.160;2022-10-15T02:43:50;71.70;;;35.17;;
18776;SDS011;9517;51.174;4.160;2022-10-15T02:46:17;67.80;;;34.47;;
18776;SDS011;9517;51.174;4.160;2022-10-15T02:48:47;73.50;;;36.33;;
18776;SDS011;9517;51.174;4.160;2022-10-15T02:51:14;72.93;;;34.47;;
18776;SDS011;9517;51.174;4.160;2022-10-15T02:53:41;74.50;;;34.73;;
18776;SDS011;9517;51.174;4.160;2022-10-15T02:56:08;75.93;;;36.37;;
18776;SDS011;9517;51.174;4.160;2022-10-15T02:58:35;74.63;;;36.73;;
18776;SDS011;9517;51.174;4.160;2022-10-15T03:01:02;75.47;;;37.23;;
18776;SDS011;9517;51.174;4.160;2022-10-15T03:03:29;79.63;;;37.20;;
18776;SDS011;9517;51.174;4.160;2022-10-15T03:05:58;75.00;;;36.77;;
18776;SDS011;9517;51.174;4.160;2022-10-15T03:08:25;74.70;;;36.20;;
18776;SDS011;9517;51.174;4.160;2022-10-15T03:10:52;73.97;;;34.93;;
18776;SDS011;9517;51.174;4.160;2022-10-15T03:13:19;78.73;;;37.10;;
18776;SDS011;9517;51.174;4.160;2022-10-15T03:15:46;80.47;;;36.80;;
18776;SDS011;9517;51.174;4.160;2022-10-15T03:18:13;82.40;;;37.00;;
18776;SDS011;9517;51.174;4.160;2022-10-15T03:20:40;72.57;;;35.37;;
18776;SDS011;9517;51.174;4.160;2022-10-15T03:23:08;84.93;;;37.37;;
18776;SDS011;9517;51.174;4.160;2022-10-15T03:25:35;83.50;;;37.53;;
18776;SDS011;9517;51.174;4.160;2022-10-15T03:28:03;82.30;;;36.13;;
18776;SDS011;9517;51.174;4.160;2022-10-15T03:30:30;83.40;;;38.10;;
18776;SDS011;9517;51.174;4.160;2022-10-15T03:32:57;92.93;;;39.77;;
18776;SDS011;9517;51.174;4.160;2022-10-15T03:35:23;85.07;;;39.00;;
18776;SDS011;9517;51.174;4.160;2022-10-15T03:37:51;82.17;;;35.97;;
18776;SDS011;9517;51.174;4.160;2022-10-15T03:40:19;86.03;;;38.67;;
18776;SDS011;9517;51.174;4.160;2022-10-15T03:42:48;91.90;;;40.23;;
18776;SDS011;9517;51.174;4.160;2022-10-15T03:45:16;102.00;;;40.23;;
18776;SDS011;9517;51.174;4.160;2022-10-15T03:47:43;96.50;;;39.67;;
18776;SDS011;9517;51.174;4.160;2022-10-15T03:50:10;90.33;;;40.07;;
18776;SDS011;9517;51.174;4.160;2022-10-15T03:52:38;104.00;;;41.50;;
18776;SDS011;9517;51.174;4.160;2022-10-15T03:55:06;104.17;;;41.63;;
18776;SDS011;9517;51.174;4.160;2022-10-15T03:57:36;111.53;;;42.60;;
18776;SDS011;9517;51.174;4.160;2022-10-15T04:00:03;112.53;;;43.20;;
18776;SDS011;9517;51.174;4.160;2022-10-15T04:02:32;110.33;;;42.97;;
18776;SDS011;9517;51.174;4.160;2022-10-15T04:04:59;114.60;;;43.37;;
18776;SDS011;9517;51.174;4.160;2022-10-15T04:07:26;117.27;;;43.57;;
18776;SDS011;9517;51.174;4.160;2022-10-15T04:09:54;114.90;;;42.87;;
18776;SDS011;9517;51.174;4.160;2022-10-15T04:12:21;120.60;;;44.10;;
18776;SDS011;9517;51.174;4.160;2022-10-15T04:14:49;120.13;;;43.80;;
18776;SDS011;9517;51.174;4.160;2022-10-15T04:17:16;121.07;;;43.40;;
18776;SDS011;9517;51.174;4.160;2022-10-15T04:19:43;125.47;;;43.50;;
18776;SDS011;9517;51.174;4.160;2022-10-15T04:22:10;120.70;;;42.97;;
18776;SDS011;9517;51.174;4.160;2022-10-15T04:24:37;126.33;;;45.47;;
18776;SDS011;9517;51.174;4.160;2022-10-15T04:27:04;113.47;;;42.53;;
18776;SDS011;9517;51.174;4.160;2022-10-15T04:29:31;118.13;;;40.93;;
18776;SDS011;9517;51.174;4.160;2022-10-15T04:32:00;116.73;;;40.93;;
18776;SDS011;9517;51.174;4.160;2022-10-15T04:34:27;117.20;;;41.90;;
18776;SDS011;9517;51.174;4.160;2022-10-15T04:36:54;121.40;;;42.53;;
18776;SDS011;9517;51.174;4.160;2022-10-15T04:39:21;106.73;;;40.73;;
18776;SDS011;9517;51.174;4.160;2022-10-15T04:41:48;112.57;;;41.50;;
18776;SDS011;9517;51.174;4.160;2022-10-15T04:44:15;113.83;;;41.27;;
18776;SDS011;9517;51.174;4.160;2022-10-15T04:46:42;106.40;;;40.30;;
18776;SDS011;9517;51.174;4.160;2022-10-15T04:49:11;104.23;;;40.33;;
18776;SDS011;9517;51.174;4.160;2022-10-15T04:51:38;102.67;;;40.60;;
18776;SDS011;9517;51.174;4.160;2022-10-15T04:54:05;93.53;;;37.83;;
18776;SDS011;9517;51.174;4.160;2022-10-15T04:56:32;92.67;;;36.83;;
18776;SDS011;9517;51.174;4.160;2022-10-15T04:58:59;89.67;;;36.50;;
18776;SDS011;9517;51.174;4.160;2022-10-15T05:01:26;85.90;;;37.40;;
18776;SDS011;9517;51.174;4.160;2022-10-15T05:03:53;87.07;;;37.80;;
18776;SDS011;9517;51.174;4.160;2022-10-15T05:06:22;84.17;;;35.30;;
18776;SDS011;9517;51.174;4.160;2022-10-15T05:08:49;81.40;;;35.73;;
18776;SDS011;9517;51.174;4.160;2022-10-15T05:11:17;74.83;;;34.40;;
18776;SDS011;9517;51.174;4.160;2022-10-15T05:13:45;75.03;;;33.83;;
18776;SDS011;9517;51.174;4.160;2022-10-15T05:16:13;72.03;;;34.53;;
18776;SDS011;9517;51.174;4.160;2022-10-15T05:18:42;72.30;;;32.30;;
18776;SDS011;9517;51.174;4.160;2022-10-15T05:21:12;69.33;;;33.33;;
18776;SDS011;9517;51.174;4.160;2022-10-15T05:23:41;71.27;;;33.60;;
18776;SDS011;9517;51.174;4.160;2022-10-15T05:26:10;72.37;;;34.03;;
18776;SDS011;9517;51.174;4.160;2022-10-15T05:28:38;70.93;;;33.50;;
18776;SDS011;9517;51.174;4.160;2022-10-15T05:31:05;66.80;;;32.17;;
18776;SDS011;9517;51.174;4.160;2022-10-15T05:33:33;66.00;;;31.90;;
18776;SDS011;9517;51.174;4.160;2022-10-15T05:36:07;67.03;;;31.50;;
18776;SDS011;9517;51.174;4.160;2022-10-15T05:38:34;61.77;;;30.70;;
18776;SDS011;9517;51.174;4.160;2022-10-15T05:41:03;64.10;;;31.03;;
18776;SDS011;9517;51.174;4.160;2022-10-15T05:43:30;63.23;;;29.93;;
18776;SDS011;9517;51.174;4.160;2022-10-15T05:45:57;59.50;;;29.73;;
18776;SDS011;9517;51.174;4.160;2022-10-15T05:48:24;61.80;;;29.90;;
18776;SDS011;9517;51.174;4.160;2022-10-15T05:50:51;59.10;;;28.10;;
18776;SDS011;9517;51.174;4.160;2022-10-15T05:53:19;60.83;;;29.30;;
18776;SDS011;9517;51.174;4.160;2022-10-15T05:55:46;59.50;;;28.10;;
18776;SDS011;9517;51.174;4.160;2022-10-15T05:58:14;68.43;;;29.93;;
18776;SDS011;9517;51.174;4.160;2022-10-15T06:00:41;59.97;;;27.90;;
18776;SDS011;9517;51.174;4.160;2022-10-15T06:03:10;61.03;;;28.77;;
18776;SDS011;9517;51.174;4.160;2022-10-15T06:05:39;61.40;;;28.27;;
18776;SDS011;9517;51.174;4.160;2022-10-15T06:08:06;64.43;;;29.17;;
18776;SDS011;9517;51.174;4.160;2022-10-15T06:10:34;63.77;;;27.70;;
18776;SDS011;9517;51.174;4.160;2022-10-15T06:13:02;65.87;;;28.23;;
18776;SDS011;9517;51.174;4.160;2022-10-15T06:15:31;65.50;;;27.47;;
18776;SDS011;9517;51.174;4.160;2022-10-15T06:17:58;61.20;;;26.50;;
18776;SDS011;9517;51.174;4.160;2022-10-15T06:20:26;64.83;;;26.43;;
18776;SDS011;9517;51.174;4.160;2022-10-15T06:22:55;59.07;;;25.47;;
18776;SDS011;9517;51.174;4.160;2022-10-15T06:25:23;55.13;;;24.97;;
18776;SDS011;9517;51.174;4.160;2022-10-15T06:27:51;53.40;;;24.70;;
18776;SDS011;9517;51.174;4.160;2022-10-15T06:30:18;56.20;;;25.10;;
18776;SDS011;9517;51.174;4.160;2022-10-15T06:32:48;54.13;;;24.03;;
18776;SDS011;9517;51.174;4.160;2022-10-15T06:35:16;52.33;;;23.67;;
18776;SDS011;9517;51.174;4.160;2022-10-15T06:37:43;57.83;;;22.93;;
18776;SDS011;9517;51.174;4.160;2022-10-15T06:40:11;52.60;;;22.90;;
18776;SDS011;9517;51.174;4.160;2022-10-15T06:42:38;53.67;;;22.20;;
18776;SDS011;9517;51.174;4.160;2022-10-15T06:45:06;46.77;;;20.33;;
18776;SDS011;9517;51.174;4.160;2022-10-15T06:47:35;51.23;;;22.80;;
18776;SDS011;9517;51.174;4.160;2022-10-15T06:50:04;48.73;;;20.83;;
18776;SDS011;9517;51.174;4.160;2022-10-15T06:52:31;45.87;;;20.20;;
18776;SDS011;9517;51.174;4.160;2022-10-15T06:54:58;46.63;;;20.33;;
18776;SDS011;9517;51.174;4.160;2022-10-15T06:57:26;40.67;;;18.00;;
18776;SDS011;9517;51.174;4.160;2022-10-15T06:59:54;48.70;;;19.47;;
18776;SDS011;9517;51.174;4.160;2022-10-15T07:02:21;41.53;;;17.10;;
18776;SDS011;9517;51.174;4.160;2022-10-15T07:04:48;40.63;;;18.13;;
18776;SDS011;9517;51.174;4.160;2022-10-15T07:07:17;43.50;;;18.07;;
18776;SDS011;9517;51.174;4.160;2022-10-15T07:09:44;42.70;;;17.63;;
18776;SDS011;9517;51.174;4.160;2022-10-15T07:12:12;41.43;;;17.93;;
18776;SDS011;9517;51.174;4.160;2022-10-15T07:14:40;46.00;;;16.70;;
18776;SDS011;9517;51.174;4.160;2022-10-15T07:17:08;38.73;;;17.60;;
18776;SDS011;9517;51.174;4.160;2022-10-15T07:19:35;41.50;;;17.17;;
18776;SDS011;9517;51.174;4.160;2022-10-15T07:22:02;39.33;;;17.20;;
18776;SDS011;9517;51.174;4.160;2022-10-15T07:24:30;35.53;;;16.07;;
18776;SDS011;9517;51.174;4.160;2022-10-15T07:26:57;33.87;;;15.53;;
18776;SDS011;9517;51.174;4.160;2022-10-15T07:29:24;33.07;;;14.73;;
18776;SDS011;9517;51.174;4.160;2022-10-15T07:31:51;30.60;;;14.17;;
18776;SDS011;9517;51.174;4.160;2022-10-15T07:34:18;32.67;;;13.87;;
18776;SDS011;9517;51.174;4.160;2022-10-15T07:36:46;31.83;;;14.83;;
18776;SDS011;9517;51.174;4.160;2022-10-15T07:39:13;31.47;;;14.17;;
18776;SDS011;9517;51.174;4.160;2022-10-15T07:41:44;28.67;;;13.20;;
18776;SDS011;9517;51.174;4.160;2022-10-15T07:44:11;26.80;;;12.43;;
18776;SDS011;9517;51.174;4.160;2022-10-15T07:46:38;29.00;;;14.00;;
18776;SDS011;9517;51.174;4.160;2022-10-15T07:49:05;25.93;;;12.30;;
18776;SDS011;9517;51.174;4.160;2022-10-15T07:51:33;27.27;;;12.07;;
18776;SDS011;9517;51.174;4.160;2022-10-15T07:54:00;26.40;;;12.57;;
18776;SDS011;9517;51.174;4.160;2022-10-15T07:56:27;25.93;;;12.80;;
18776;SDS011;9517;51.174;4.160;2022-10-15T07:58:56;28.10;;;12.33;;
18776;SDS011;9517;51.174;4.160;2022-10-15T08:01:23;27.80;;;12.30;;
18776;SDS011;9517;51.174;4.160;2022-10-15T08:03:50;28.67;;;12.50;;
18776;SDS011;9517;51.174;4.160;2022-10-15T08:06:17;27.03;;;12.27;;
18776;SDS011;9517;51.174;4.160;2022-10-15T08:08:44;27.27;;;11.77;;
18776;SDS011;9517;51.174;4.160;2022-10-15T08:11:12;27.00;;;11.77;;
18776;SDS011;9517;51.174;4.160;2022-10-15T08:13:41;26.70;;;12.20;;
18776;SDS011;9517;51.174;4.160;2022-10-15T08:16:11;25.13;;;11.20;;
18776;SDS011;9517;51.174;4.160;2022-10-15T08:18:39;23.23;;;11.20;;
18776;SDS011;9517;51.174;4.160;2022-10-15T08:21:07;22.90;;;10.07;;
18776;SDS011;9517;51.174;4.160;2022-10-15T08:23:36;23.47;;;10.07;;
18776;SDS011;9517;51.174;4.160;2022-10-15T08:26:03;22.43;;;10.10;;
18776;SDS011;9517;51.174;4.160;2022-10-15T08:28:31;24.07;;;10.80;;
18776;SDS011;9517;51.174;4.160;2022-10-15T08:31:00;23.33;;;10.40;;
18776;SDS011;9517;51.174;4.160;2022-10-15T08:33:29;19.70;;;9.80;;
18776;SDS011;9517;51.174;4.160;2022-10-15T08:35:56;21.07;;;9.40;;
18776;SDS011;9517;51.174;4.160;2022-10-15T08:38:24;19.50;;;9.43;;
18776;SDS011;9517;51.174;4.160;2022-10-15T08:40:51;19.03;;;9.10;;
18776;SDS011;9517;51.174;4.160;2022-10-15T08:43:20;19.43;;;8.97;;
18776;SDS011;9517;51.174;4.160;2022-10-15T08:45:50;16.67;;;7.77;;
18776;SDS011;9517;51.174;4.160;2022-10-15T08:48:21;20.90;;;8.80;;
18776;SDS011;9517;51.174;4.160;2022-10-15T08:50:56;20.83;;;7.93;;
18776;SDS011;9517;51.174;4.160;2022-10-15T08:53:27;14.93;;;6.93;;
18776;SDS011;9517;51.174;4.160;2022-10-15T08:56:00;17.70;;;7.10;;
18776;SDS011;9517;51.174;4.160;2022-10-15T08:58:36;17.63;;;7.27;;
18776;SDS011;9517;51.174;4.160;2022-10-15T09:01:12;15.90;;;6.30;;
18776;SDS011;9517;51.174;4.160;2022-10-15T09:03:49;16.07;;;6.43;;
18776;SDS011;9517;51.174;4.160;2022-10-15T09:06:28;13.00;;;6.03;;
18776;SDS011;9517;51.174;4.160;2022-10-15T09:09:06;14.97;;;6.37;;
18776;SDS011;9517;51.174;4.160;2022-10-15T09:11:47;13.30;;;5.40;;
18776;SDS011;9517;51.174;4.160;2022-10-15T09:14:32;12.70;;;5.20;;
18776;SDS011;9517;51.174;4.160;2022-10-15T09:17:04;10.70;;;4.83;;
18776;SDS011;9517;51.174;4.160;2022-10-15T09:19:39;13.87;;;4.77;;
18776;SDS011;9517;51.174;4.160;2022-10-15T09:22:11;9.33;;;4.20;;
18776;SDS011;9517;51.174;4.160;2022-10-15T09:24:42;11.27;;;4.37;;
18776;SDS011;9517;51.174;4.160;2022-10-15T09:27:11;12.47;;;4.17;;
18776;SDS011;9517;51.174;4.160;2022-10-15T09:29:52;9.70;;;3.70;;
18776;SDS011;9517;51.174;4.160;2022-10-15T09:32:31;9.43;;;4.20;;
18776;SDS011;9517;51.174;4.160;2022-10-15T09:35:04;9.47;;;4.30;;
18776;SDS011;9517;51.174;4.160;2022-10-15T09:37:45;11.50;;;4.20;;
18776;SDS011;9517;51.174;4.160;2022-10-15T09:40:26;11.43;;;3.73;;
18776;SDS011;9517;51.174;4.160;2022-10-15T09:43:02;14.17;;;4.43;;
18776;SDS011;9517;51.174;4.160;2022-10-15T09:45:31;8.30;;;4.13;;
18776;SDS011;9517;51.174;4.160;2022-10-15T09:48:11;10.87;;;4.63;;
18776;SDS011;9517;51.174;4.160;2022-10-15T09:50:43;8.60;;;3.93;;
18776;SDS011;9517;51.174;4.160;2022-10-15T09:53:24;8.20;;;3.50;;
18776;SDS011;9517;51.174;4.160;2022-10-15T09:56:07;8.40;;;3.73;;
18776;SDS011;9517;51.174;4.160;2022-10-15T09:58:43;7.53;;;3.43;;
18776;SDS011;9517;51.174;4.160;2022-10-15T10:01:16;8.53;;;3.27;;
18776;SDS011;9517;51.174;4.160;2022-10-15T10:03:44;8.47;;;3.80;;
18776;SDS011;9517;51.174;4.160;2022-10-15T10:06:17;9.93;;;3.80;;
18776;SDS011;9517;51.174;4.160;2022-10-15T10:08:48;7.30;;;3.47;;
18776;SDS011;9517;51.174;4.160;2022-10-15T10:11:17;8.53;;;3.30;;
18776;SDS011;9517;51.174;4.160;2022-10-15T10:13:48;8.00;;;3.70;;
18776;SDS011;9517;51.174;4.160;2022-10-15T10:16:17;8.30;;;3.23;;
18776;SDS011;9517;51.174;4.160;2022-10-15T10:19:01;7.80;;;3.70;;
18776;SDS011;9517;51.174;4.160;2022-10-15T10:21:31;9.47;;;4.80;;
18776;SDS011;9517;51.174;4.160;2022-10-15T10:26:52;10.80;;;4.43;;
18776;SDS011;9517;51.174;4.160;2022-10-15T10:29:20;10.13;;;4.40;;
18776;SDS011;9517;51.174;4.160;2022-10-15T10:31:49;9.83;;;4.60;;
18776;SDS011;9517;51.174;4.160;2022-10-15T10:34:20;9.60;;;5.13;;
18776;SDS011;9517;51.174;4.160;2022-10-15T10:36:52;10.57;;;4.63;;
18776;SDS011;9517;51.174;4.160;2022-10-15T10:39:23;7.97;;;4.40;;
18776;SDS011;9517;51.174;4.160;2022-10-15T10:41:52;13.07;;;4.27;;
18776;SDS011;9517;51.174;4.160;2022-10-15T10:44:24;9.60;;;4.37;;
18776;SDS011;9517;51.174;4.160;2022-10-15T10:47:01;10.20;;;4.30;;
18776;SDS011;9517;51.174;4.160;2022-10-15T10:49:36;8.97;;;4.33;;
18776;SDS011;9517;51.174;4.160;2022-10-15T10:52:04;8.17;;;4.57;;
18776;SDS011;9517;51.174;4.160;2022-10-15T10:54:33;8.43;;;4.00;;
18776;SDS011;9517;51.174;4.160;2022-10-15T10:57:01;7.73;;;3.47;;
18776;SDS011;9517;51.174;4.160;2022-10-15T10:59:30;7.07;;;3.20;;
18776;SDS011;9517;51.174;4.160;2022-10-15T11:02:02;8.83;;;3.23;;
18776;SDS011;9517;51.174;4.160;2022-10-15T11:04:34;8.67;;;2.83;;
18776;SDS011;9517;51.174;4.160;2022-10-15T11:07:04;6.47;;;2.53;;
18776;SDS011;9517;51.174;4.160;2022-10-15T11:09:43;6.13;;;2.20;;
18776;SDS011;9517;51.174;4.160;2022-10-15T11:15:27;3.17;;;1.60;;
18776;SDS011;9517;51.174;4.160;2022-10-15T11:18:22;4.53;;;2.00;;
18776;SDS011;9517;51.174;4.160;2022-10-15T11:21:09;3.77;;;1.80;;
18776;SDS011;9517;51.174;4.160;2022-10-15T11:23:47;7.10;;;1.63;;
18776;SDS011;9517;51.174;4.160;2022-10-15T11:26:33;2.60;;;1.30;;
18776;SDS011;9517;51.174;4.160;2022-10-15T11:29:10;3.47;;;1.30;;
18776;SDS011;9517;51.174;4.160;2022-10-15T11:31:44;5.60;;;1.57;;
18776;SDS011;9517;51.174;4.160;2022-10-15T11:34:22;3.40;;;1.30;;
18776;SDS011;9517;51.174;4.160;2022-10-15T11:37:00;4.33;;;1.57;;
18776;SDS011;9517;51.174;4.160;2022-10-15T11:39:49;3.50;;;1.50;;
18776;SDS011;9517;51.174;4.160;2022-10-15T11:42:29;4.50;;;1.70;;
18776;SDS011;9517;51.174;4.160;2022-10-15T11:47:58;6.00;;;1.60;;
18776;SDS011;9517;51.174;4.160;2022-10-15T11:50:29;2.80;;;1.50;;
18776;SDS011;9517;51.174;4.160;2022-10-15T11:53:04;3.57;;;1.20;;
18776;SDS011;9517;51.174;4.160;2022-10-15T11:55:44;4.00;;;0.93;;
18776;SDS011;9517;51.174;4.160;2022-10-15T11:58:20;2.30;;;1.00;;
18776;SDS011;9517;51.174;4.160;2022-10-15T12:00:55;4.07;;;1.10;;
18776;SDS011;9517;51.174;4.160;2022-10-15T12:03:28;2.37;;;0.80;;
18776;SDS011;9517;51.174;4.160;2022-10-15T12:06:02;2.53;;;1.10;;
18776;SDS011;9517;51.174;4.160;2022-10-15T12:08:33;1.83;;;0.80;;
18776;SDS011;9517;51.174;4.160;2022-10-15T12:11:09;1.80;;;0.67;;
18776;SDS011;9517;51.174;4.160;2022-10-15T12:13:47;4.00;;;0.83;;
18776;SDS011;9517;51.174;4.160;2022-10-15T12:16:24;3.23;;;0.60;;
18776;SDS011;9517;51.174;4.160;2022-10-15T12:18:57;1.50;;;0.70;;
18776;SDS011;9517;51.174;4.160;2022-10-15T12:21:34;1.30;;;0.50;;
18776;SDS011;9517;51.174;4.160;2022-10-15T12:24:03;1.50;;;0.60;;
18776;SDS011;9517;51.174;4.160;2022-10-15T12:26:52;3.23;;;0.87;;
18776;SDS011;9517;51.174;4.160;2022-10-15T12:29:20;4.10;;;0.67;;
18776;SDS011;9517;51.174;4.160;2022-10-15T12:31:50;3.20;;;0.80;;
18776;SDS011;9517;51.174;4.160;2022-10-15T12:34:24;4.07;;;0.90;;
18776;SDS011;9517;51.174;4.160;2022-10-15T12:36:58;3.43;;;0.90;;
18776;SDS011;9517;51.174;4.160;2022-10-15T12:39:29;3.77;;;1.10;;
18776;SDS011;9517;51.174;4.160;2022-10-15T12:41:58;3.57;;;0.80;;
18776;SDS011;9517;51.174;4.160;2022-10-15T12:44:27;3.30;;;0.77;;
18776;SDS011;9517;51.174;4.160;2022-10-15T12:46:56;1.13;;;0.40;;
18776;SDS011;9517;51.174;4.160;2022-10-15T12:55:24;1.90;;;0.50;;
18776;SDS011;9517;51.174;4.160;2022-10-15T12:57:58;2.13;;;0.47;;
18776;SDS011;9517;51.174;4.160;2022-10-15T13:00:37;3.90;;;0.53;;
18776;SDS011;9517;51.174;4.160;2022-10-15T13:03:22;2.37;;;0.60;;
18776;SDS011;9517;51.174;4.160;2022-10-15T13:05:52;5.00;;;0.70;;
18776;SDS011;9517;51.174;4.160;2022-10-15T13:08:29;4.33;;;0.73;;
18776;SDS011;9517;51.174;4.160;2022-10-15T13:10:57;4.53;;;0.67;;
18776;SDS011;9517;51.174;4.160;2022-10-15T13:13:28;6.00;;;1.10;;
18776;SDS011;9517;51.174;4.160;2022-10-15T13:15:58;7.70;;;0.90;;
18776;SDS011;9517;51.174;4.160;2022-10-15T13:18:28;8.27;;;1.20;;
18776;SDS011;9517;51.174;4.160;2022-10-15T13:20:56;7.07;;;0.90;;
18776;SDS011;9517;51.174;4.160;2022-10-15T13:23:24;5.03;;;1.03;;
18776;SDS011;9517;51.174;4.160;2022-10-15T13:28:42;5.57;;;1.20;;
18776;SDS011;9517;51.174;4.160;2022-10-15T13:31:15;6.10;;;1.30;;
18776;SDS011;9517;51.174;4.160;2022-10-15T13:33:47;5.27;;;1.27;;
18776;SDS011;9517;51.174;4.160;2022-10-15T13:36:18;8.23;;;1.43;;
18776;SDS011;9517;51.174;4.160;2022-10-15T13:38:56;7.53;;;1.30;;
18776;SDS011;9517;51.174;4.160;2022-10-15T13:41:26;4.30;;;1.17;;
18776;SDS011;9517;51.174;4.160;2022-10-15T13:43:57;6.93;;;1.43;;
18776;SDS011;9517;51.174;4.160;2022-10-15T13:46:25;8.77;;;1.50;;
18776;SDS011;9517;51.174;4.160;2022-10-15T13:49:02;5.27;;;1.00;;
18776;SDS011;9517;51.174;4.160;2022-10-15T13:51:38;6.60;;;1.07;;
18776;SDS011;9517;51.174;4.160;2022-10-15T13:54:08;3.00;;;0.80;;
18776;SDS011;9517;51.174;4.160;2022-10-15T13:56:41;7.83;;;1.07;;
18776;SDS011;9517;51.174;4.160;2022-10-15T13:59:15;5.50;;;1.13;;
18776;SDS011;9517;51.174;4.160;2022-10-15T14:01:44;7.70;;;1.73;;
18776;SDS011;9517;51.174;4.160;2022-10-15T14:04:14;9.77;;;1.20;;
18776;SDS011;9517;51.174;4.160;2022-10-15T14:06:50;7.80;;;1.53;;
18776;SDS011;9517;51.174;4.160;2022-10-15T14:09:33;11.30;;;2.40;;
18776;SDS011;9517;51.174;4.160;2022-10-15T14:12:03;6.03;;;1.40;;
18776;SDS011;9517;51.174;4.160;2022-10-15T14:14:34;7.07;;;1.13;;
18776;SDS011;9517;51.174;4.160;2022-10-15T14:17:04;9.10;;;1.07;;
18776;SDS011;9517;51.174;4.160;2022-10-15T14:19:33;8.63;;;1.00;;
18776;SDS011;9517;51.174;4.160;2022-10-15T14:22:02;8.03;;;1.13;;
18776;SDS011;9517;51.174;4.160;2022-10-15T14:24:30;8.70;;;1.13;;
18776;SDS011;9517;51.174;4.160;2022-10-15T14:27:12;6.97;;;1.40;;
18776;SDS011;9517;51.174;4.160;2022-10-15T14:29:42;9.43;;;1.33;;
18776;SDS011;9517;51.174;4.160;2022-10-15T14:32:18;8.47;;;1.67;;
18776;SDS011;9517;51.174;4.160;2022-10-15T14:34:47;6.37;;;0.97;;
18776;SDS011;9517;51.174;4.160;2022-10-15T14:37:27;5.73;;;1.07;;
18776;SDS011;9517;51.174;4.160;2022-10-15T14:40:02;8.43;;;1.20;;
18776;SDS011;9517;51.174;4.160;2022-10-15T14:42:36;8.07;;;1.10;;
18776;SDS011;9517;51.174;4.160;2022-10-15T14:45:13;6.50;;;1.03;;
18776;SDS011;9517;51.174;4.160;2022-10-15T14:47:49;8.23;;;1.50;;
18776;SDS011;9517;51.174;4.160;2022-10-15T14:50:18;4.00;;;0.87;;
18776;SDS011;9517;51.174;4.160;2022-10-15T14:52:49;7.80;;;1.40;;
18776;SDS011;9517;51.174;4.160;2022-10-15T14:55:23;9.60;;;1.40;;
18776;SDS011;9517;51.174;4.160;2022-10-15T14:57:58;7.77;;;1.10;;
18776;SDS011;9517;51.174;4.160;2022-10-15T15:00:30;6.47;;;1.10;;
18776;SDS011;9517;51.174;4.160;2022-10-15T15:03:00;8.00;;;1.20;;
18776;SDS011;9517;51.174;4.160;2022-10-15T15:05:42;8.17;;;1.53;;
18776;SDS011;9517;51.174;4.160;2022-10-15T15:08:11;8.80;;;1.30;;
18776;SDS011;9517;51.174;4.160;2022-10-15T15:10:38;7.57;;;1.30;;
18776;SDS011;9517;51.174;4.160;2022-10-15T15:13:09;7.33;;;1.20;;
18776;SDS011;9517;51.174;4.160;2022-10-15T15:15:46;7.50;;;1.10;;
18776;SDS011;9517;51.174;4.160;2022-10-15T15:18:13;9.60;;;1.50;;
18776;SDS011;9517;51.174;4.160;2022-10-15T15:20:41;11.27;;;1.70;;
18776;SDS011;9517;51.174;4.160;2022-10-15T15:23:11;9.47;;;1.30;;
18776;SDS011;9517;51.174;4.160;2022-10-15T15:25:44;6.20;;;1.23;;